Time;durP1;ratioP1;P1;durP2;ratioP2;P2;SDS_P1;SDS_P2;PMS_P1;PMS_P2;Temp;Humidity;BMP_temperature;BMP_pressure;BME280_temperature;BME280_humidity;BME280_pressure;Samples;Min_cycle;Max_cycle;Signal;HPM_P1;HPM_P2
2022/03/11 00:02:01;;;;;;;2.70;2.00;;;;;;;;;;1792847;80;21001;-70
2022/03/11 00:04:28;;;;;;;3.83;2.05;;;;;;;;;;1793265;80;21638;-69
2022/03/11 00:06:54;;;;;;;2.55;1.85;;;;;;;;;;1792868;80;21084;-69
2022/03/11 00:09:22;;;;;;;2.90;2.00;;;;;;;;;;1793003;80;21495;-69
2022/03/11 00:11:48;;;;;;;3.40;2.40;;;;;;;;;;1793077;80;21024;-70
2022/03/11 00:14:16;;;;;;;2.80;2.20;;;;;;;;;;1792748;80;21102;-71
2022/03/11 00:16:43;;;;;;;3.90;2.55;;;;;;;;;;1792872;80;21044;-70
2022/03/11 00:19:09;;;;;;;2.98;2.17;;;;;;;;;;1792975;80;21593;-70
2022/03/11 00:21:36;;;;;;;4.75;2.60;;;;;;;;;;1792834;80;22053;-69
2022/03/11 00:24:03;;;;;;;2.98;2.00;;;;;;;;;;1792939;80;21055;-70
2022/03/11 00:26:29;;;;;;;4.37;2.30;;;;;;;;;;1792984;80;21012;-70
2022/03/11 00:28:56;;;;;;;2.37;2.08;;;;;;;;;;1792944;80;21028;-71
2022/03/11 00:31:22;;;;;;;2.42;1.80;;;;;;;;;;1788531;80;21465;-70
2022/03/11 00:33:48;;;;;;;4.67;2.00;;;;;;;;;;1760231;81;21083;-69
2022/03/11 00:36:15;;;;;;;2.80;2.00;;;;;;;;;;1759900;81;21056;-69
2022/03/11 00:38:43;;;;;;;3.65;2.20;;;;;;;;;;1760252;81;21040;-69
2022/03/11 00:41:09;;;;;;;3.98;2.30;;;;;;;;;;1758257;81;21080;-70
2022/03/11 00:43:35;;;;;;;1.77;1.67;;;;;;;;;;1754720;82;21037;-69
2022/03/11 00:46:02;;;;;;;2.60;1.98;;;;;;;;;;1755066;82;21031;-69
2022/03/11 00:48:29;;;;;;;3.22;2.10;;;;;;;;;;1754586;82;21048;-69
2022/03/11 00:50:58;;;;;;;3.02;2.25;;;;;;;;;;1754834;82;21076;-69
2022/03/11 00:53:25;;;;;;;3.00;1.98;;;;;;;;;;1754552;82;21004;-70
2022/03/11 00:55:52;;;;;;;3.65;2.15;;;;;;;;;;1754541;82;21072;-70
2022/03/11 00:58:20;;;;;;;4.33;2.37;;;;;;;;;;1754363;82;21087;-70
2022/03/11 01:00:46;;;;;;;3.67;2.12;;;;;;;;;;1754642;82;21041;-70
2022/03/11 01:03:12;;;;;;;3.45;2.08;;;;;;;;;;1754453;82;21517;-71
2022/03/11 01:05:39;;;;;;;2.12;1.90;;;;;;;;;;1754777;82;21559;-70
2022/03/11 01:08:05;;;;;;;4.80;2.42;;;;;;;;;;1754669;82;21072;-72
2022/03/11 01:10:31;;;;;;;3.12;1.90;;;;;;;;;;1754751;82;21032;-71
2022/03/11 01:12:59;;;;;;;2.95;2.10;;;;;;;;;;1754393;82;21157;-71
2022/03/11 01:15:26;;;;;;;3.40;2.20;;;;;;;;;;1754586;82;21644;-71
2022/03/11 01:17:52;;;;;;;3.25;2.00;;;;;;;;;;1754233;82;21088;-70
2022/03/11 01:20:19;;;;;;;3.58;2.12;;;;;;;;;;1754644;82;21496;-70
2022/03/11 01:22:45;;;;;;;4.72;2.15;;;;;;;;;;1754301;82;21532;-70
2022/03/11 01:25:12;;;;;;;2.40;2.20;;;;;;;;;;1754478;82;21651;-70
2022/03/11 01:27:40;;;;;;;2.65;1.98;;;;;;;;;;1754345;82;21547;-70
2022/03/11 01:30:07;;;;;;;3.92;1.90;;;;;;;;;;1754437;82;21503;-70
2022/03/11 01:32:35;;;;;;;2.55;1.95;;;;;;;;;;1754208;80;21641;-70
2022/03/11 01:35:02;;;;;;;2.30;1.98;;;;;;;;;;1754381;82;21064;-70
2022/03/11 01:37:28;;;;;;;2.42;1.75;;;;;;;;;;1754266;82;21072;-70
2022/03/11 01:39:55;;;;;;;4.25;2.45;;;;;;;;;;1754490;82;21038;-70
2022/03/11 01:42:21;;;;;;;2.33;1.95;;;;;;;;;;1748264;82;21118;-70
2022/03/11 01:44:48;;;;;;;2.83;2.22;;;;;;;;;;1746616;82;21068;-70
2022/03/11 01:47:15;;;;;;;3.42;1.80;;;;;;;;;;1746391;82;21084;-70
2022/03/11 01:49:41;;;;;;;2.08;1.70;;;;;;;;;;1746552;82;21044;-70
2022/03/11 01:52:07;;;;;;;2.85;2.22;;;;;;;;;;1746415;82;21504;-70
2022/03/11 01:54:33;;;;;;;3.20;1.80;;;;;;;;;;1746396;82;22172;-70
2022/03/11 01:57:01;;;;;;;3.10;1.90;;;;;;;;;;1746375;82;21076;-70
2022/03/11 01:59:28;;;;;;;4.95;2.02;;;;;;;;;;1746167;82;21611;-70
2022/03/11 02:04:43;;;;;;;2.37;2.02;;;;;;;;;;1698521;79;21618;-69
2022/03/11 02:07:11;;;;;;;2.45;1.90;;;;;;;;;;1689290;85;21044;-68
2022/03/11 02:09:37;;;;;;;2.10;1.90;;;;;;;;;;1694539;85;21531;-69
2022/03/11 02:12:03;;;;;;;4.60;2.67;;;;;;;;;;1694696;85;21070;-68
2022/03/11 02:14:30;;;;;;;4.37;2.20;;;;;;;;;;1694379;85;21063;-68
2022/03/11 02:16:58;;;;;;;4.62;2.33;;;;;;;;;;1694596;83;21032;-68
2022/03/11 02:19:25;;;;;;;2.87;2.05;;;;;;;;;;1694402;85;21040;-68
2022/03/11 02:21:53;;;;;;;2.25;1.80;;;;;;;;;;1694536;85;21106;-70
2022/03/11 02:24:22;;;;;;;2.67;2.10;;;;;;;;;;1694452;85;21088;-68
2022/03/11 02:26:49;;;;;;;3.98;2.00;;;;;;;;;;1694678;85;21081;-69
2022/03/11 02:29:16;;;;;;;2.42;2.17;;;;;;;;;;1694430;85;21112;-68
2022/03/11 02:31:43;;;;;;;3.70;2.10;;;;;;;;;;1694693;85;21036;-69
2022/03/11 02:34:10;;;;;;;1.90;1.70;;;;;;;;;;1694529;85;21092;-69
2022/03/11 02:36:36;;;;;;;2.10;1.90;;;;;;;;;;1694674;85;21118;-69
2022/03/11 02:39:06;;;;;;;3.12;2.50;;;;;;;;;;1694707;85;21527;-69
2022/03/11 02:41:32;;;;;;;2.20;1.80;;;;;;;;;;1694687;85;21583;-69
2022/03/11 02:43:59;;;;;;;2.45;1.80;;;;;;;;;;1694630;85;21553;-69
2022/03/11 02:46:25;;;;;;;2.35;1.95;;;;;;;;;;1694756;85;21519;-69
2022/03/11 02:48:51;;;;;;;3.55;2.35;;;;;;;;;;1694704;85;21032;-70
2022/03/11 02:51:17;;;;;;;2.62;2.12;;;;;;;;;;1694452;85;21064;-69
2022/03/11 02:53:43;;;;;;;3.52;2.20;;;;;;;;;;1694773;85;20997;-70
2022/03/11 02:56:13;;;;;;;3.37;2.20;;;;;;;;;;1694767;85;21063;-67
2022/03/11 02:58:40;;;;;;;2.00;1.80;;;;;;;;;;1694509;85;21063;-67
2022/03/11 03:01:06;;;;;;;3.98;2.27;;;;;;;;;;1694737;85;21111;-68
2022/03/11 03:03:34;;;;;;;2.67;2.22;;;;;;;;;;1705041;83;21076;-69
2022/03/11 03:06:03;;;;;;;3.58;2.60;;;;;;;;;;1725314;83;21639;-69
2022/03/11 03:08:30;;;;;;;3.05;2.17;;;;;;;;;;1725626;83;21039;-68
2022/03/11 03:10:57;;;;;;;3.02;2.00;;;;;;;;;;1725715;83;21104;-69
2022/03/11 03:13:24;;;;;;;3.70;2.10;;;;;;;;;;1725292;83;22154;-69
2022/03/11 03:15:54;;;;;;;3.77;2.27;;;;;;;;;;1725346;83;21067;-70
2022/03/11 03:18:21;;;;;;;3.37;3.02;;;;;;;;;;1725644;83;21505;-70
2022/03/11 03:20:47;;;;;;;3.20;2.10;;;;;;;;;;1725159;83;22072;-69
2022/03/11 03:23:15;;;;;;;5.10;2.58;;;;;;;;;;1725425;83;21105;-69
2022/03/11 03:25:41;;;;;;;3.37;2.10;;;;;;;;;;1725408;83;22071;-69
2022/03/11 03:28:09;;;;;;;6.33;2.55;;;;;;;;;;1725553;83;21595;-69
2022/03/11 03:30:37;;;;;;;2.85;2.50;;;;;;;;;;1725206;83;21064;-69
2022/03/11 03:33:04;;;;;;;3.10;2.20;;;;;;;;;;1725515;83;21104;-69
2022/03/11 03:35:30;;;;;;;2.90;2.25;;;;;;;;;;1725131;83;21064;-69
2022/03/11 03:37:57;;;;;;;4.65;2.58;;;;;;;;;;1725569;83;21056;-69
2022/03/11 03:40:23;;;;;;;4.05;2.37;;;;;;;;;;1725225;83;21578;-69
2022/03/11 03:42:50;;;;;;;4.42;2.35;;;;;;;;;;1703181;83;21064;-69
2022/03/11 03:45:17;;;;;;;2.75;2.17;;;;;;;;;;1725238;83;21061;-69
2022/03/11 03:47:45;;;;;;;2.55;2.22;;;;;;;;;;1725490;83;21068;-70
2022/03/11 03:50:13;;;;;;;2.20;2.00;;;;;;;;;;1725180;83;21098;-70
2022/03/11 03:52:39;;;;;;;5.08;2.30;;;;;;;;;;1725539;83;21040;-70
2022/03/11 03:55:05;;;;;;;2.98;2.10;;;;;;;;;;1725385;83;21009;-70
2022/03/11 03:57:33;;;;;;;2.40;1.92;;;;;;;;;;1725293;83;21108;-69
2022/03/11 03:59:59;;;;;;;4.55;2.62;;;;;;;;;;1725506;83;21041;-69
2022/03/11 04:02:26;;;;;;;3.42;2.65;;;;;;;;;;1725546;83;21029;-69
2022/03/11 04:04:53;;;;;;;3.67;2.47;;;;;;;;;;1725236;82;21171;-69
2022/03/11 04:07:19;;;;;;;2.47;2.25;;;;;;;;;;1725644;83;21010;-69
2022/03/11 04:09:46;;;;;;;3.75;2.27;;;;;;;;;;1725559;83;21076;-69
2022/03/11 04:12:14;;;;;;;3.55;2.65;;;;;;;;;;1725767;83;21048;-69
2022/03/11 04:14:43;;;;;;;4.00;2.70;;;;;;;;;;1725507;83;21064;-68
2022/03/11 04:17:10;;;;;;;3.10;2.52;;;;;;;;;;1725546;83;21131;-69
2022/03/11 04:19:37;;;;;;;3.35;2.22;;;;;;;;;;1725569;83;21100;-69
2022/03/11 04:22:04;;;;;;;3.92;2.50;;;;;;;;;;1725357;83;21056;-69
2022/03/11 04:24:31;;;;;;;6.50;3.05;;;;;;;;;;1725550;83;21068;-69
2022/03/11 04:26:57;;;;;;;3.83;2.75;;;;;;;;;;1725362;83;21085;-69
2022/03/11 04:29:26;;;;;;;2.40;2.10;;;;;;;;;;1725488;83;22096;-69
2022/03/11 04:31:52;;;;;;;3.75;2.77;;;;;;;;;;1725742;83;21041;-70
2022/03/11 04:34:18;;;;;;;5.22;2.60;;;;;;;;;;1725365;83;21103;-70
2022/03/11 04:36:44;;;;;;;3.90;2.58;;;;;;;;;;1725690;83;20996;-69
2022/03/11 04:39:11;;;;;;;4.15;2.45;;;;;;;;;;1725479;83;21013;-69
2022/03/11 04:41:38;;;;;;;3.22;2.40;;;;;;;;;;1725553;83;21072;-68
2022/03/11 04:44:04;;;;;;;4.22;2.20;;;;;;;;;;1725509;83;21571;-69
2022/03/11 04:46:31;;;;;;;4.12;2.20;;;;;;;;;;1725635;83;21026;-68
2022/03/11 04:48:58;;;;;;;3.77;2.70;;;;;;;;;;1725256;83;21076;-69
2022/03/11 04:51:25;;;;;;;3.12;2.12;;;;;;;;;;1725623;83;21107;-68
2022/03/11 04:53:51;;;;;;;4.97;2.50;;;;;;;;;;1725604;83;21021;-69
2022/03/11 04:56:19;;;;;;;4.33;2.40;;;;;;;;;;1725842;83;21092;-69
2022/03/11 04:58:45;;;;;;;3.60;2.40;;;;;;;;;;1725715;83;21096;-69
2022/03/11 05:01:11;;;;;;;3.08;2.20;;;;;;;;;;1725632;83;21068;-69
2022/03/11 05:03:38;;;;;;;3.10;2.50;;;;;;;;;;1725360;82;21100;-69
2022/03/11 05:06:05;;;;;;;6.40;2.72;;;;;;;;;;1725433;82;21061;-69
2022/03/11 05:08:31;;;;;;;2.75;2.27;;;;;;;;;;1725649;83;21020;-69
2022/03/11 05:10:59;;;;;;;4.20;2.83;;;;;;;;;;1725523;83;21140;-69
2022/03/11 05:13:27;;;;;;;4.42;2.55;;;;;;;;;;1725413;83;21123;-68
2022/03/11 05:15:53;;;;;;;3.30;2.60;;;;;;;;;;1725326;83;20965;-68
2022/03/11 05:18:21;;;;;;;4.40;2.30;;;;;;;;;;1725356;83;21042;-68
2022/03/11 05:20:47;;;;;;;3.58;2.27;;;;;;;;;;1725432;83;21052;-69
2022/03/11 05:23:13;;;;;;;2.95;2.25;;;;;;;;;;1725525;83;21515;-69
2022/03/11 05:25:40;;;;;;;3.90;2.25;;;;;;;;;;1725674;83;21104;-69
2022/03/11 05:28:07;;;;;;;5.00;2.20;;;;;;;;;;1725803;83;21068;-68
2022/03/11 05:30:36;;;;;;;3.25;1.87;;;;;;;;;;1725579;83;21001;-68
2022/03/11 05:33:04;;;;;;;3.30;2.22;;;;;;;;;;1703857;83;21686;-68
2022/03/11 05:35:31;;;;;;;3.25;2.42;;;;;;;;;;1725833;83;21072;-68
2022/03/11 05:37:57;;;;;;;4.12;2.55;;;;;;;;;;1725795;83;21028;-68
2022/03/11 05:40:23;;;;;;;3.27;2.30;;;;;;;;;;1725406;83;21021;-68
2022/03/11 05:42:50;;;;;;;3.60;2.20;;;;;;;;;;1725669;83;20970;-68
2022/03/11 05:45:17;;;;;;;3.80;2.47;;;;;;;;;;1725773;83;21075;-68
2022/03/11 05:47:44;;;;;;;3.20;2.40;;;;;;;;;;1725698;83;21080;-68
2022/03/11 05:50:10;;;;;;;4.58;2.72;;;;;;;;;;1725671;83;21048;-69
2022/03/11 05:52:38;;;;;;;5.08;2.30;;;;;;;;;;1725581;83;21092;-69
2022/03/11 05:55:05;;;;;;;5.10;2.30;;;;;;;;;;1724575;83;21060;-69
2022/03/11 05:57:33;;;;;;;4.65;2.17;;;;;;;;;;1725603;83;21092;-69
2022/03/11 05:59:59;;;;;;;5.97;2.58;;;;;;;;;;1725516;83;21017;-68
2022/03/11 06:02:25;;;;;;;4.40;2.37;;;;;;;;;;1725583;83;21044;-69
2022/03/11 06:04:52;;;;;;;5.95;3.00;;;;;;;;;;1730691;81;22240;-69
2022/03/11 06:07:19;;;;;;;3.05;2.20;;;;;;;;;;1741623;82;21575;-69
2022/03/11 06:09:47;;;;;;;3.92;2.50;;;;;;;;;;1741367;82;21694;-69
2022/03/11 06:12:14;;;;;;;4.50;2.37;;;;;;;;;;1741680;82;21102;-69
2022/03/11 06:14:41;;;;;;;4.05;2.60;;;;;;;;;;1741397;82;21049;-71
2022/03/11 06:17:09;;;;;;;4.70;2.67;;;;;;;;;;1741787;82;21037;-70
2022/03/11 06:19:35;;;;;;;4.08;2.35;;;;;;;;;;1741754;82;21021;-70
2022/03/11 06:22:02;;;;;;;4.85;2.72;;;;;;;;;;1741851;82;21069;-69
2022/03/11 06:24:30;;;;;;;5.20;2.62;;;;;;;;;;1741289;82;21104;-69
2022/03/11 06:26:56;;;;;;;5.08;2.30;;;;;;;;;;1741756;82;21073;-70
2022/03/11 06:29:22;;;;;;;4.60;2.62;;;;;;;;;;1741723;82;21037;-69
2022/03/11 06:31:49;;;;;;;3.72;2.75;;;;;;;;;;1741845;82;21068;-70
2022/03/11 06:34:15;;;;;;;4.22;2.67;;;;;;;;;;1741657;82;21022;-69
2022/03/11 06:36:43;;;;;;;4.58;2.70;;;;;;;;;;1706404;84;21062;-70
2022/03/11 06:39:13;;;;;;;4.15;2.58;;;;;;;;;;1682328;85;21107;-69
2022/03/11 06:41:39;;;;;;;4.20;2.60;;;;;;;;;;1741868;82;21080;-68
2022/03/11 06:44:05;;;;;;;5.20;2.65;;;;;;;;;;1741856;82;21552;-69
2022/03/11 06:46:33;;;;;;;3.72;2.52;;;;;;;;;;1741642;82;21077;-68
2022/03/11 06:48:59;;;;;;;3.65;2.58;;;;;;;;;;1741881;82;21033;-70
2022/03/11 06:51:25;;;;;;;6.08;2.60;;;;;;;;;;1741706;82;21037;-69
2022/03/11 06:53:52;;;;;;;8.30;3.40;;;;;;;;;;1741446;82;21109;-70
2022/03/11 06:56:18;;;;;;;4.87;2.47;;;;;;;;;;1741709;82;21588;-68
2022/03/11 06:58:44;;;;;;;4.67;2.75;;;;;;;;;;1741900;82;21532;-69
2022/03/11 07:01:11;;;;;;;2.92;2.10;;;;;;;;;;1741505;82;21096;-68
2022/03/11 07:03:39;;;;;;;3.05;2.45;;;;;;;;;;1741783;81;21117;-69
2022/03/11 07:06:05;;;;;;;3.87;2.15;;;;;;;;;;1741590;82;21065;-69
2022/03/11 07:08:33;;;;;;;4.70;2.55;;;;;;;;;;1741830;82;21565;-68
2022/03/11 07:10:59;;;;;;;3.87;2.40;;;;;;;;;;1741834;82;21014;-70
2022/03/11 07:13:27;;;;;;;8.78;2.92;;;;;;;;;;1741971;82;21021;-69
2022/03/11 07:15:56;;;;;;;2.62;2.22;;;;;;;;;;1741734;82;21544;-69
2022/03/11 07:18:22;;;;;;;3.87;2.20;;;;;;;;;;1741905;82;21612;-68
2022/03/11 07:20:48;;;;;;;6.30;2.30;;;;;;;;;;1741721;82;21104;-68
2022/03/11 07:23:15;;;;;;;3.65;2.27;;;;;;;;;;1722550;82;21037;-68
2022/03/11 07:25:42;;;;;;;4.78;2.37;;;;;;;;;;1741670;82;21079;-68
2022/03/11 07:28:08;;;;;;;3.08;2.27;;;;;;;;;;1741874;82;21021;-68
2022/03/11 07:30:35;;;;;;;3.33;2.27;;;;;;;;;;1741428;82;21061;-68
2022/03/11 07:33:01;;;;;;;4.78;2.12;;;;;;;;;;1741915;82;21024;-69
2022/03/11 07:35:28;;;;;;;6.12;2.12;;;;;;;;;;1741452;82;21099;-68
2022/03/11 07:37:55;;;;;;;4.83;2.70;;;;;;;;;;1741671;82;21057;-68
2022/03/11 07:40:21;;;;;;;4.10;2.50;;;;;;;;;;1741643;82;21017;-69
2022/03/11 07:42:49;;;;;;;2.30;1.90;;;;;;;;;;1741591;82;21053;-69
2022/03/11 07:45:16;;;;;;;6.92;2.02;;;;;;;;;;1741465;82;21105;-68
2022/03/11 07:47:44;;;;;;;2.02;1.70;;;;;;;;;;1741714;82;21032;-68
2022/03/11 07:50:11;;;;;;;4.10;2.20;;;;;;;;;;1741602;82;21049;-70
2022/03/11 07:52:39;;;;;;;3.15;1.77;;;;;;;;;;1741685;82;21119;-68
2022/03/11 07:55:07;;;;;;;2.45;1.87;;;;;;;;;;1741459;82;21025;-70
2022/03/11 07:57:35;;;;;;;2.00;1.67;;;;;;;;;;1741724;82;21025;-69
2022/03/11 08:00:06;;;;;;;1.90;1.77;;;;;;;;;;1741493;82;21466;-69
2022/03/11 08:02:34;;;;;;;1.82;1.65;;;;;;;;;;1740910;82;21021;-70
2022/03/11 08:05:01;;;;;;;1.98;1.70;;;;;;;;;;1741301;81;21176;-70
2022/03/11 08:07:28;;;;;;;2.17;1.80;;;;;;;;;;1741563;82;21053;-70
2022/03/11 08:09:55;;;;;;;3.77;1.80;;;;;;;;;;1741304;82;21101;-70
2022/03/11 08:12:21;;;;;;;3.62;2.17;;;;;;;;;;1741811;82;21501;-68
2022/03/11 08:14:48;;;;;;;4.15;2.20;;;;;;;;;;1741495;82;21604;-69
2022/03/11 08:17:16;;;;;;;2.12;1.80;;;;;;;;;;1741710;82;21132;-69
2022/03/11 08:19:42;;;;;;;2.40;1.80;;;;;;;;;;1741428;82;21528;-69
2022/03/11 08:22:11;;;;;;;2.58;1.87;;;;;;;;;;1741798;82;21045;-69
2022/03/11 08:24:39;;;;;;;2.87;1.77;;;;;;;;;;1741929;82;21341;-68
2022/03/11 08:27:05;;;;;;;3.00;2.10;;;;;;;;;;1741817;82;21017;-68
2022/03/11 08:29:34;;;;;;;2.62;1.70;;;;;;;;;;1741958;82;21116;-67
2022/03/11 08:32:00;;;;;;;1.72;1.60;;;;;;;;;;1741719;82;21607;-68
2022/03/11 08:34:27;;;;;;;1.62;1.42;;;;;;;;;;1741756;82;21060;-68
2022/03/11 08:36:54;;;;;;;3.15;2.00;;;;;;;;;;1741620;82;21046;-69
2022/03/11 08:39:21;;;;;;;2.17;1.98;;;;;;;;;;1741867;82;21017;-69
2022/03/11 08:41:47;;;;;;;4.50;2.30;;;;;;;;;;1741822;82;21117;-70
2022/03/11 08:44:14;;;;;;;1.70;1.60;;;;;;;;;;1741956;82;21064;-68
2022/03/11 08:46:42;;;;;;;3.58;1.80;;;;;;;;;;1741544;82;21069;-68
2022/03/11 08:49:08;;;;;;;4.72;1.87;;;;;;;;;;1742022;82;21080;-69
2022/03/11 08:51:35;;;;;;;2.85;2.12;;;;;;;;;;1741708;82;21053;-69
2022/03/11 08:54:02;;;;;;;2.35;1.98;;;;;;;;;;1741795;82;21053;-68
2022/03/11 08:56:28;;;;;;;3.00;1.80;;;;;;;;;;1741889;82;21041;-68
2022/03/11 08:58:55;;;;;;;3.90;1.80;;;;;;;;;;1741759;82;21041;-69
2022/03/11 09:01:21;;;;;;;2.37;1.77;;;;;;;;;;1741824;82;21073;-68
2022/03/11 09:03:48;;;;;;;2.95;1.72;;;;;;;;;;1741643;81;21076;-68
2022/03/11 09:06:15;;;;;;;2.65;1.90;;;;;;;;;;1732228;81;21029;-68
2022/03/11 09:08:41;;;;;;;2.55;1.92;;;;;;;;;;1703287;83;20997;-68
2022/03/11 09:11:09;;;;;;;2.80;1.80;;;;;;;;;;1725594;83;21325;-68
2022/03/11 09:13:36;;;;;;;2.85;2.65;;;;;;;;;;1725618;83;21084;-67
2022/03/11 09:16:04;;;;;;;2.55;1.90;;;;;;;;;;1725566;83;21074;-69
2022/03/11 09:18:31;;;;;;;6.33;2.33;;;;;;;;;;1725536;83;21103;-68
2022/03/11 09:20:58;;;;;;;5.10;2.02;;;;;;;;;;1725193;83;21631;-69
2022/03/11 09:23:25;;;;;;;3.17;2.00;;;;;;;;;;1725528;83;21036;-71
2022/03/11 09:25:54;;;;;;;2.83;1.85;;;;;;;;;;1725219;83;22233;-70
2022/03/11 09:28:20;;;;;;;1.82;1.70;;;;;;;;;;1725500;83;21068;-69
2022/03/11 09:30:47;;;;;;;4.22;2.33;;;;;;;;;;1725584;83;21068;-69
2022/03/11 09:33:13;;;;;;;2.10;1.90;;;;;;;;;;1725516;83;20989;-68
2022/03/11 09:35:41;;;;;;;4.17;2.17;;;;;;;;;;1725541;83;21286;-68
2022/03/11 09:38:07;;;;;;;6.75;1.90;;;;;;;;;;1725607;83;21017;-69
2022/03/11 09:40:33;;;;;;;3.80;1.67;;;;;;;;;;1725542;83;20977;-70
2022/03/11 09:43:01;;;;;;;2.25;1.90;;;;;;;;;;1725352;83;21099;-68
2022/03/11 09:45:27;;;;;;;2.00;1.80;;;;;;;;;;1725528;83;21047;-68
2022/03/11 09:47:55;;;;;;;4.55;2.37;;;;;;;;;;1725466;83;21053;-67
2022/03/11 09:50:23;;;;;;;2.20;1.80;;;;;;;;;;1725412;83;21104;-67
2022/03/11 09:52:50;;;;;;;3.30;2.10;;;;;;;;;;1725597;83;21069;-67
2022/03/11 09:55:16;;;;;;;2.15;1.70;;;;;;;;;;1725449;83;21065;-68
2022/03/11 09:57:43;;;;;;;3.30;1.82;;;;;;;;;;1725575;83;21108;-69
2022/03/11 10:00:10;;;;;;;2.40;2.12;;;;;;;;;;1725676;83;21001;-69
2022/03/11 10:02:45;;;;;;;2.72;1.82;;;;;;;;;;1725570;82;21077;-67
2022/03/11 10:05:14;;;;;;;3.33;2.05;;;;;;;;;;1725826;82;21045;-69
2022/03/11 10:07:40;;;;;;;3.35;2.22;;;;;;;;;;1741826;82;21116;-68
2022/03/11 10:10:13;;;;;;;3.15;2.02;;;;;;;;;;1741688;82;21037;-68
2022/03/11 10:12:40;;;;;;;1.98;1.80;;;;;;;;;;1733638;82;21029;-68
2022/03/11 10:15:07;;;;;;;4.62;2.30;;;;;;;;;;1741734;82;21060;-68
2022/03/11 10:17:44;;;;;;;4.50;2.40;;;;;;;;;;1741980;82;21025;-68
2022/03/11 10:20:12;;;;;;;1.87;1.77;;;;;;;;;;1741787;82;21082;-68
2022/03/11 10:22:42;;;;;;;4.22;2.20;;;;;;;;;;1740636;82;21119;-68
2022/03/11 10:25:18;;;;;;;1.82;1.70;;;;;;;;;;1741686;82;21258;-68
2022/03/11 10:27:59;;;;;;;4.58;2.00;;;;;;;;;;1741586;82;21096;-69
2022/03/11 10:30:32;;;;;;;3.77;1.90;;;;;;;;;;1741719;82;21021;-69
2022/03/11 10:33:02;;;;;;;2.10;1.67;;;;;;;;;;1741641;82;21069;-69
2022/03/11 10:35:33;;;;;;;2.37;1.90;;;;;;;;;;1741803;82;21540;-70
2022/03/11 10:38:02;;;;;;;3.27;1.95;;;;;;;;;;1741468;82;21053;-69
2022/03/11 10:40:31;;;;;;;3.35;2.22;;;;;;;;;;1741658;82;21647;-68
2022/03/11 10:43:10;;;;;;;2.90;1.70;;;;;;;;;;1741656;82;21533;-68
2022/03/11 10:45:43;;;;;;;2.90;1.90;;;;;;;;;;1741747;82;21540;-69
2022/03/11 10:48:09;;;;;;;2.47;1.70;;;;;;;;;;1741967;82;21485;-69
2022/03/11 10:50:36;;;;;;;2.80;1.75;;;;;;;;;;1741697;82;21493;-69
2022/03/11 10:53:07;;;;;;;3.15;1.90;;;;;;;;;;1741778;82;21087;-69
2022/03/11 10:55:34;;;;;;;2.58;1.70;;;;;;;;;;1741699;82;21029;-68
2022/03/11 10:58:01;;;;;;;2.52;1.80;;;;;;;;;;1741623;82;21014;-69
2022/03/11 11:00:35;;;;;;;1.70;1.60;;;;;;;;;;1741654;82;21120;-69
2022/03/11 11:03:02;;;;;;;2.25;1.92;;;;;;;;;;1741696;81;21093;-67
2022/03/11 11:05:29;;;;;;;2.62;1.77;;;;;;;;;;1741604;82;21068;-68
2022/03/11 11:07:56;;;;;;;1.80;1.70;;;;;;;;;;1741395;82;20994;-68
2022/03/11 11:10:24;;;;;;;5.65;2.02;;;;;;;;;;1722777;82;21037;-68
2022/03/11 11:12:50;;;;;;;2.45;1.85;;;;;;;;;;1741632;82;21005;-68
2022/03/11 11:15:17;;;;;;;2.62;1.70;;;;;;;;;;1741323;82;21093;-68
2022/03/11 11:17:44;;;;;;;3.67;1.80;;;;;;;;;;1741741;82;21002;-67
2022/03/11 11:20:19;;;;;;;2.65;1.90;;;;;;;;;;1741388;82;21038;-68
2022/03/11 11:22:46;;;;;;;1.98;1.57;;;;;;;;;;1741675;82;21038;-68
2022/03/11 11:25:13;;;;;;;2.37;1.62;;;;;;;;;;1741605;82;20999;-68
2022/03/11 11:27:40;;;;;;;2.00;1.85;;;;;;;;;;1741767;82;21002;-68
2022/03/11 11:30:07;;;;;;;1.67;1.50;;;;;;;;;;1741626;82;21053;-68
2022/03/11 11:32:35;;;;;;;3.77;1.90;;;;;;;;;;1741913;82;21009;-69
2022/03/11 11:35:20;;;;;;;1.50;1.40;;;;;;;;;;1741892;82;20978;-69
2022/03/11 11:37:47;;;;;;;2.62;1.80;;;;;;;;;;1741720;82;21053;-70
2022/03/11 11:40:21;;;;;;;2.42;1.60;;;;;;;;;;1741836;82;21038;-68
2022/03/11 11:43:06;;;;;;;1.75;1.55;;;;;;;;;;1741940;82;21501;-68
2022/03/11 11:45:48;;;;;;;1.67;1.50;;;;;;;;;;1741583;82;21041;-69
2022/03/11 11:49:04;;;;;;;6.97;1.80;;;;;;;;;;1801274;79;22537;-69
2022/03/11 11:51:38;;;;;;;2.40;1.77;;;;;;;;;;1761662;81;21032;-69
2022/03/11 11:54:09;;;;;;;3.50;1.72;;;;;;;;;;1761872;81;21025;-69
2022/03/11 11:56:41;;;;;;;3.30;1.85;;;;;;;;;;1761601;81;21111;-68
2022/03/11 11:59:09;;;;;;;2.72;1.60;;;;;;;;;;1761799;81;21516;-69
2022/03/11 12:01:41;;;;;;;3.17;2.40;;;;;;;;;;1761887;81;21016;-69
2022/03/11 12:04:22;;;;;;;5.42;2.45;;;;;;;;;;1740376;81;21151;-68
2022/03/11 12:07:00;;;;;;;2.98;1.98;;;;;;;;;;1729596;82;21013;-68
2022/03/11 12:12:24;;;;;;;2.83;1.70;;;;;;;;;;1730059;83;21052;-67
2022/03/11 12:15:01;;;;;;;1.77;1.55;;;;;;;;;;1730108;83;21079;-68
2022/03/11 12:17:40;;;;;;;2.30;1.65;;;;;;;;;;1729890;82;21056;-69
2022/03/11 12:20:25;;;;;;;1.72;1.62;;;;;;;;;;1730194;82;21038;-69
2022/03/11 12:22:52;;;;;;;2.58;1.80;;;;;;;;;;1729706;82;21069;-69
2022/03/11 12:25:22;;;;;;;3.50;1.50;;;;;;;;;;1730078;82;21080;-70
2022/03/11 12:27:59;;;;;;;3.42;1.85;;;;;;;;;;1729971;83;22104;-69
2022/03/11 12:30:26;;;;;;;2.45;1.50;;;;;;;;;;1729900;82;21056;-69
2022/03/11 12:32:53;;;;;;;2.40;1.60;;;;;;;;;;1730001;83;21123;-69
2022/03/11 12:35:22;;;;;;;1.55;1.45;;;;;;;;;;1729970;83;21064;-69
2022/03/11 12:37:48;;;;;;;2.22;1.40;;;;;;;;;;1729710;83;21562;-69
2022/03/11 12:40:15;;;;;;;1.65;1.55;;;;;;;;;;1729964;83;21583;-68
2022/03/11 12:42:41;;;;;;;1.45;1.35;;;;;;;;;;1729839;82;21005;-68
2022/03/11 12:45:10;;;;;;;1.60;1.45;;;;;;;;;;1729999;83;21080;-69
2022/03/11 12:47:37;;;;;;;3.15;1.92;;;;;;;;;;1725959;82;21085;-69
2022/03/11 12:50:04;;;;;;;1.72;1.57;;;;;;;;;;1717361;83;20998;-69
2022/03/11 12:52:37;;;;;;;1.87;1.32;;;;;;;;;;1717223;83;21073;-68
2022/03/11 12:55:20;;;;;;;1.95;1.40;;;;;;;;;;1717499;83;20966;-69
2022/03/11 12:57:50;;;;;;;1.62;1.50;;;;;;;;;;1717324;83;21080;-68
2022/03/11 13:00:24;;;;;;;1.72;1.55;;;;;;;;;;1716960;83;21033;-69
2022/03/11 13:02:50;;;;;;;;;;;;;;;;;;1719596;82;21116;-69
2022/03/11 13:05:23;;;;;;;1.80;1.40;;;;;;;;;;1717091;83;20127;-69
2022/03/11 13:07:51;;;;;;;3.20;1.60;;;;;;;;;;1716644;83;21128;-69
2022/03/11 13:10:21;;;;;;;2.35;1.70;;;;;;;;;;1716979;83;21041;-68
2022/03/11 13:12:50;;;;;;;3.27;1.62;;;;;;;;;;1717075;83;21054;-69
2022/03/11 13:15:21;;;;;;;2.10;1.50;;;;;;;;;;1716970;83;21033;-69
2022/03/11 13:17:46;;;;;;;1.85;1.62;;;;;;;;;;1716607;83;21555;-69
2022/03/11 13:20:29;;;;;;;2.20;1.50;;;;;;;;;;1716896;83;21037;-69
2022/03/11 13:22:56;;;;;;;2.22;1.72;;;;;;;;;;1717034;83;21069;-69
2022/03/11 13:25:23;;;;;;;2.90;1.98;;;;;;;;;;1716963;83;21350;-70
2022/03/11 13:27:49;;;;;;;1.72;1.60;;;;;;;;;;1716785;83;21353;-71
2022/03/11 13:30:16;;;;;;;1.70;1.60;;;;;;;;;;1716774;83;21080;-70
2022/03/11 13:32:42;;;;;;;1.85;1.60;;;;;;;;;;1706696;83;21064;-69
2022/03/11 13:35:10;;;;;;;1.67;1.57;;;;;;;;;;1716864;83;21061;-70
2022/03/11 13:37:43;;;;;;;1.77;1.67;;;;;;;;;;1716585;83;21077;-70
2022/03/11 13:40:09;;;;;;;3.25;1.67;;;;;;;;;;1717008;83;21088;-70
2022/03/11 13:42:36;;;;;;;1.75;1.50;;;;;;;;;;1716705;83;21026;-70
2022/03/11 13:45:05;;;;;;;2.45;1.60;;;;;;;;;;1716888;83;21033;-70
2022/03/11 13:47:34;;;;;;;1.77;1.62;;;;;;;;;;1718554;83;21021;-70
2022/03/11 13:50:07;;;;;;;2.10;1.60;;;;;;;;;;1729397;82;21080;-70
2022/03/11 13:52:40;;;;;;;3.37;1.85;;;;;;;;;;1729631;82;21025;-69
2022/03/11 13:55:10;;;;;;;3.30;1.90;;;;;;;;;;1729731;82;21528;-68
2022/03/11 13:57:44;;;;;;;2.75;1.98;;;;;;;;;;1729606;82;21555;-68
2022/03/11 14:00:22;;;;;;;2.90;2.02;;;;;;;;;;1729681;83;21073;-68
2022/03/11 14:02:59;;;;;;;2.85;1.85;;;;;;;;;;1729564;81;21639;-69
2022/03/11 14:05:26;;;;;;;2.80;1.90;;;;;;;;;;1729787;82;22185;-70
2022/03/11 14:07:57;;;;;;;3.10;1.80;;;;;;;;;;1729337;82;21052;-70
2022/03/11 14:10:26;;;;;;;2.77;2.00;;;;;;;;;;1729657;82;21576;-70
2022/03/11 14:13:08;;;;;;;2.47;1.90;;;;;;;;;;1712908;83;21091;-70
2022/03/11 14:15:36;;;;;;;2.75;1.85;;;;;;;;;;1729680;83;21068;-70
2022/03/11 14:18:02;;;;;;;2.87;1.92;;;;;;;;;;1729686;83;20982;-70
2022/03/11 14:20:31;;;;;;;4.72;1.95;;;;;;;;;;1729739;82;21072;-70
2022/03/11 14:22:59;;;;;;;3.05;1.82;;;;;;;;;;1729344;83;21111;-70
2022/03/11 14:25:25;;;;;;;1.90;1.65;;;;;;;;;;1729822;83;21060;-70
2022/03/11 14:27:51;;;;;;;2.50;1.70;;;;;;;;;;1729597;83;21548;-69
2022/03/11 14:30:18;;;;;;;3.33;1.80;;;;;;;;;;1729429;83;22170;-69
2022/03/11 14:32:45;;;;;;;1.95;1.75;;;;;;;;;;1729561;83;21069;-70
2022/03/11 14:35:11;;;;;;;2.60;1.65;;;;;;;;;;1729831;83;21067;-70
2022/03/11 14:37:38;;;;;;;4.25;1.70;;;;;;;;;;1729509;82;21602;-70
2022/03/11 14:40:07;;;;;;;2.72;1.98;;;;;;;;;;1729701;82;21555;-69
2022/03/11 14:42:36;;;;;;;2.05;1.72;;;;;;;;;;1729765;83;21005;-70
2022/03/11 14:45:06;;;;;;;3.20;1.98;;;;;;;;;;1729827;83;21025;-70
2022/03/11 14:47:33;;;;;;;2.00;1.62;;;;;;;;;;1729111;83;21045;-70
2022/03/11 14:50:00;;;;;;;2.47;1.60;;;;;;;;;;1717269;83;21030;-70
2022/03/11 14:52:26;;;;;;;4.83;1.70;;;;;;;;;;1716636;83;21607;-70
2022/03/11 14:54:53;;;;;;;2.37;1.55;;;;;;;;;;1716958;83;21022;-69